Rawalakot Weather



Rawalakot's Current Weather

Temprature 17.05o clear sky

clear sky

Rain: 0 %

Min Temprature17.05o
Max Temprature17.05o
Humidity83
Wind Speed1.9 m/h
Sun Rise05:32:08
Sun Set18:43:46
Current Time: 23-Aug-2019 06:18:22
Lat/Lon: 33.86, 73.76




Rawalakot's Geo Location



Rawalakot's Weather Forecast

Time Overall Temp Min Temp Max Temp Humidity Wind Speed Rain
23-Aug-2019 (Fri)
08:00:00 clear sky 21.980 21.977 21.980 70 1.97 m/h 0 %
11:00:00 clear sky 26.850 26.850 26.850 53 0.97 m/h 0 %
14:00:00 clear sky 28.730 28.730 28.731 44 1.45 m/h 0 %
17:00:00 clear sky 27.010 27.010 27.011 61 1.57 m/h 0 %
20:00:00 clear sky 20.550 20.550 20.550 79 1.29 m/h 0 %
23:00:00 clear sky 18.942 18.942 18.942 79 2.08 m/h 0 %
24-Aug-2019 (Sat)
02:00:00 clear sky 17.931 17.931 17.931 78 2.36 m/h 0 %
05:00:00 clear sky 17.555 17.555 17.555 76 2.52 m/h 0 %
08:00:00 clear sky 22.967 22.967 22.967 65 1.78 m/h 0 %
11:00:00 clear sky 27.969 27.969 27.969 49 0.65 m/h 0 %
14:00:00 clear sky 28.769 28.769 28.769 48 2.55 m/h 0 %
17:00:00 clear sky 27.223 27.223 27.223 60 1.72 m/h 0 %
20:00:00 clear sky 21.050 21.050 21.050 74 1.85 m/h 0 %
23:00:00 clear sky 19.769 19.769 19.769 76 2.33 m/h 0 %
25-Aug-2019 (Sun)
02:00:00 clear sky 18.931 18.931 18.931 76 2.48 m/h 0 %
05:00:00 clear sky 18.257 18.257 18.257 74 2.23 m/h 0 %
08:00:00 clear sky 23.014 23.014 23.014 63 0.97 m/h 0 %
11:00:00 clear sky 27.316 27.316 27.316 51 1.56 m/h 0 %
14:00:00 clear sky 28.550 28.550 28.550 48 2.18 m/h 0 %
17:00:00 few clouds 27.050 27.050 27.050 60 1.53 m/h 0 %
20:00:00 light rain 21.181 21.181 21.181 74 1 m/h 13 %
23:00:00 clear sky 19.811 19.811 19.811 79 2.47 m/h 0 %
26-Aug-2019 (Mon)
02:00:00 clear sky 18.765 18.765 18.765 81 1.99 m/h 0 %
05:00:00 light rain 17.550 17.550 17.550 85 1.26 m/h 44 %
08:00:00 clear sky 22.367 22.367 22.367 71 1.21 m/h 0 %
11:00:00 light rain 25.972 25.972 25.972 61 1.35 m/h 175 %
14:00:00 light rain 26.784 26.784 26.784 58 2.48 m/h 150 %
17:00:00 light rain 26.320 26.320 26.320 60 1.29 m/h 6 %
20:00:00 clear sky 20.972 20.972 20.972 79 1 m/h 0 %
23:00:00 clear sky 19.814 19.814 19.814 82 1.91 m/h 0 %
27-Aug-2019 (Tue)
02:00:00 clear sky 18.716 18.716 18.716 84 2.76 m/h 0 %
05:00:00 clear sky 18.250 18.250 18.250 79 2.37 m/h 0 %
08:00:00 scattered clouds 23.235 23.235 23.235 66 0.87 m/h 0 %
11:00:00 broken clouds 27.136 27.136 27.136 55 1.87 m/h 0 %
14:00:00 overcast clouds 28.436 28.436 28.436 55 2.96 m/h 0 %
17:00:00 overcast clouds 26.765 26.765 26.765 66 1.47 m/h 0 %
20:00:00 light rain 21.550 21.550 21.550 81 1.19 m/h 219 %
23:00:00 light rain 20.450 20.450 20.450 82 1.74 m/h 112 %
28-Aug-2019 (Wed)
02:00:00 scattered clouds 19.957 19.957 19.957 81 1.58 m/h 0 %
05:00:00 light rain 19.772 19.772 19.772 82 1.23 m/h 169 %

Famous Cities (61)